Placedo, Texas
Current Conditions -  °F | °C
As of 4:35 PM on Friday 19 Dec 2014 (Local Time) from KPKV Reporting Station
Overcast Overcast  
Wind Chill: 58°   Ceiling: 1600
Heat Index: 58°   Visibility: 10mi
Dew Point: 55°   Wind: 16mph
Humidity: 91%   Direction: 10°N
Pressure: 30.02"   Gusts: NA
Location:  28.69°N, 96.83°W
Report Text: KPKV 192235Z AUTO 01014KT 10SM OVC016 15/13 A3002 RMK AO2 T01450130
Loading
Personal Weather Stations






























Interactive Weather Map New forecast layout! Learn more

10-Day Weather Forecast

Advertisements
Track Severe Weather on mobile